Terminal Aerodrome Forecast
Issued by NWS

Home | Current Version | Previous Version | Text Only | Print | Product List | Glossary On
Versions: 1 2 3 4 5 6 7 8 9 10 11 12 13 14 15 16 17 18 19
000
FTAK31 PAJN 162000 AAA
TAFAWG
TAF AMD
PAWG 162003Z 1620/1718 00000KT 1/2SM FG OVC003
     FM162100 30004KT P6SM SCT005 OVC070
     FM162200 30004KT P6SM BKN100
     FM170400 VRB02KT P6SM VCSH OVC070
     FM171200 00000KT 2SM BR VCSH BKN005 OVC050
      AMD LTD TO CLD VIS AND WIND 1706/1715=

USA.gov is the U.S. government's official web portal to all federal, state and local government web resources and services.